Time;durP1;ratioP1;P1;durP2;ratioP2;P2;SDS_P1;SDS_P2;PMS_P1;PMS_P2;Temp;Humidity;BMP_temperature;BMP_pressure;BME280_temperature;BME280_humidity;BME280_pressure;Samples;Min_cycle;Max_cycle;Signal;HPM_P1;HPM_P2
2023/03/31 00:02:22;;;;;;;17.17;3.70;;;10.50;99.90;;;;;;5014942;28;20204;-60
2023/03/31 00:04:52;;;;;;;17.57;3.83;;;10.50;99.90;;;;;;5000332;28;20718;-56
2023/03/31 00:07:20;;;;;;;19.27;4.23;;;10.50;99.90;;;;;;5003044;28;20242;-56
2023/03/31 00:09:48;;;;;;;12.23;4.47;;;10.50;99.90;;;;;;5017876;28;20599;-60
2023/03/31 00:12:16;;;;;;;17.53;4.37;;;10.50;99.90;;;;;;4994149;28;20562;-56
2023/03/31 00:14:44;;;;;;;17.90;4.03;;;10.50;99.90;;;;;;5015888;28;20199;-57
2023/03/31 00:17:11;;;;;;;23.70;4.50;;;10.50;99.90;;;;;;5009091;28;20218;-55
2023/03/31 00:19:40;;;;;;;22.87;4.40;;;10.50;99.90;;;;;;4997271;28;20224;-60
2023/03/31 00:22:08;;;;;;;18.90;4.47;;;10.50;99.90;;;;;;5013531;28;20200;-53
2023/03/31 00:24:35;;;;;;;18.97;4.40;;;10.50;99.90;;;;;;5019646;28;20220;-57
2023/03/31 00:27:03;;;;;;;18.17;4.80;;;10.50;99.90;;;;;;5005577;28;20197;-55
2023/03/31 00:29:32;;;;;;;20.50;4.20;;;10.50;99.90;;;;;;5011860;28;20451;-59
2023/03/31 00:32:01;;;;;;;17.23;4.77;;;10.50;99.90;;;;;;5009670;28;20592;-60
2023/03/31 00:34:28;;;;;;;21.63;4.93;;;10.50;99.90;;;;;;5002522;28;20204;-59
2023/03/31 00:37:01;;;;;;;14.43;4.10;;;10.50;99.90;;;;;;5015198;28;20315;-58
2023/03/31 00:39:32;;;;;;;9.67;4.00;;;10.50;99.90;;;;;;5014343;28;20378;-59
2023/03/31 00:42:02;;;;;;;18.80;4.30;;;10.50;99.90;;;;;;4988942;28;20289;-58
2023/03/31 00:44:32;;;;;;;14.57;3.80;;;10.40;99.90;;;;;;5007763;28;20279;-59
2023/03/31 00:47:05;;;;;;;12.70;4.17;;;10.50;99.90;;;;;;5019599;28;20192;-60
2023/03/31 00:49:36;;;;;;;17.00;4.10;;;10.40;99.90;;;;;;5008321;28;20298;-59
2023/03/31 00:52:12;;;;;;;12.77;3.33;;;10.50;99.90;;;;;;5003308;28;20210;-56
2023/03/31 00:54:41;;;;;;;18.50;3.83;;;10.50;99.90;;;;;;5023549;28;20197;-59
2023/03/31 00:57:09;;;;;;;11.13;4.10;;;10.50;99.90;;;;;;5007176;28;20223;-56
2023/03/31 00:59:40;;;;;;;17.53;4.10;;;10.50;99.90;;;;;;5010802;28;21003;-58
2023/03/31 01:02:09;;;;;;;13.50;3.73;;;10.50;99.90;;;;;;5015251;28;20671;-56
2023/03/31 01:04:41;;;;;;;15.97;4.13;;;10.50;99.90;;;;;;5016987;28;20247;-57
2023/03/31 01:07:15;;;;;;;15.03;3.33;;;10.50;99.90;;;;;;5000778;28;20730;-54
2023/03/31 01:09:46;;;;;;;14.70;4.43;;;10.50;99.90;;;;;;5024239;28;20220;-60
2023/03/31 01:12:17;;;;;;;17.83;3.37;;;10.50;99.90;;;;;;5005806;28;20209;-56
2023/03/31 01:14:44;;;;;;;22.17;4.27;;;10.40;99.90;;;;;;5017041;28;20223;-57
2023/03/31 01:17:17;;;;;;;18.03;3.70;;;10.40;99.90;;;;;;5012255;28;20233;-55
2023/03/31 01:19:56;;;;;;;12.67;3.23;;;10.50;99.90;;;;;;5008594;28;20221;-59
2023/03/31 01:22:45;;;;;;;14.40;4.03;;;10.40;99.90;;;;;;5002130;28;20899;-59
2023/03/31 01:25:50;;;;;;;16.07;3.33;;;10.50;99.90;;;;;;5019535;28;20200;-57
2023/03/31 01:28:26;;;;;;;20.83;4.80;;;10.40;99.90;;;;;;4997023;28;20230;-55
2023/03/31 01:31:30;;;;;;;13.40;3.50;;;10.40;99.90;;;;;;5011477;28;21729;-59
2023/03/31 01:34:35;;;;;;;13.57;2.87;;;10.40;99.90;;;;;;5026338;28;20207;-58
2023/03/31 01:37:59;;;;;;;16.43;3.37;;;10.40;99.90;;;;;;5016415;28;20682;-55
2023/03/31 01:40:50;;;;;;;16.37;3.93;;;10.40;99.90;;;;;;4975815;28;20226;-60
2023/03/31 01:43:23;;;;;;;14.37;3.03;;;10.40;99.90;;;;;;4990073;28;20211;-53
2023/03/31 01:45:59;;;;;;;15.37;3.20;;;10.40;99.90;;;;;;5020386;28;20255;-56
2023/03/31 01:48:35;;;;;;;12.97;3.57;;;10.40;99.90;;;;;;5008636;28;20235;-60
2023/03/31 01:51:07;;;;;;;22.30;2.80;;;10.40;99.90;;;;;;5049774;28;20307;-58
2023/03/31 01:53:43;;;;;;;15.33;3.43;;;10.40;99.90;;;;;;4996916;28;20212;-57
2023/03/31 01:56:16;;;;;;;10.07;2.70;;;10.40;99.90;;;;;;5016150;28;20728;-55
2023/03/31 01:58:49;;;;;;;15.87;2.77;;;10.40;99.90;;;;;;5018931;28;20323;-57
2023/03/31 02:01:21;;;;;;;16.43;3.03;;;10.40;99.90;;;;;;4997094;28;20722;-55
2023/03/31 02:03:53;;;;;;;15.23;3.80;;;10.50;99.90;;;;;;5018877;28;20204;-57
2023/03/31 02:06:25;;;;;;;15.70;3.93;;;10.40;99.90;;;;;;5009259;28;20196;-55
2023/03/31 02:08:56;;;;;;;18.77;4.07;;;10.40;99.90;;;;;;5005203;28;20462;-57
2023/03/31 02:11:28;;;;;;;19.73;3.70;;;10.40;99.90;;;;;;5011986;28;20201;-56
2023/03/31 02:14:00;;;;;;;17.40;3.30;;;10.50;99.90;;;;;;5015952;28;20208;-59
2023/03/31 02:16:31;;;;;;;11.17;3.43;;;10.50;99.90;;;;;;4997578;28;20203;-57
2023/03/31 02:19:02;;;;;;;18.93;3.40;;;10.50;99.90;;;;;;5013046;28;20216;-60
2023/03/31 02:21:33;;;;;;;14.13;3.00;;;10.50;99.90;;;;;;5014462;28;20188;-59
2023/03/31 02:24:02;;;;;;;15.60;3.27;;;10.50;99.90;;;;;;5023098;28;20198;-60
2023/03/31 02:26:33;;;;;;;12.07;3.60;;;10.50;99.90;;;;;;5002286;28;20196;-59
2023/03/31 02:29:02;;;;;;;12.83;3.13;;;10.50;99.90;;;;;;5018809;28;20224;-54
2023/03/31 02:31:37;;;;;;;13.07;2.57;;;10.50;99.90;;;;;;4992283;28;20208;-59
2023/03/31 02:34:06;;;;;;;11.40;3.30;;;10.50;99.90;;;;;;5013126;28;20207;-54
2023/03/31 02:36:35;;;;;;;9.70;2.83;;;10.50;99.90;;;;;;5009781;28;21101;-58
2023/03/31 02:39:06;;;;;;;13.30;2.53;;;10.50;99.90;;;;;;5021517;28;20293;-52
2023/03/31 02:41:35;;;;;;;12.23;3.37;;;10.50;99.90;;;;;;5003832;28;20212;-57
2023/03/31 02:44:02;;;;;;;17.30;3.30;;;10.40;99.90;;;;;;5016003;28;20577;-52
2023/03/31 02:46:31;;;;;;;17.30;3.70;;;10.40;99.90;;;;;;4999278;28;20751;-58
2023/03/31 02:49:04;;;;;;;13.83;3.30;;;10.40;99.90;;;;;;5018909;28;20215;-54
2023/03/31 02:52:01;;;;;;;11.70;3.93;;;10.40;99.90;;;;;;5012233;28;20184;-58
2023/03/31 02:54:51;;;;;;;18.50;3.60;;;10.40;99.90;;;;;;5011854;28;20288;-60
2023/03/31 02:57:35;;;;;;;12.93;3.47;;;10.40;99.90;;;;;;5003239;28;20212;-54
2023/03/31 03:00:09;;;;;;;12.93;3.40;;;10.30;99.90;;;;;;5051077;28;20235;-56
2023/03/31 03:02:53;;;;;;;19.40;3.97;;;10.30;99.90;;;;;;5026916;28;20295;-60
2023/03/31 03:05:33;;;;;;;9.53;2.80;;;10.30;99.90;;;;;;5011363;28;20862;-56
2023/03/31 03:08:27;;;;;;;11.23;3.13;;;10.30;99.90;;;;;;5004339;28;20254;-52
2023/03/31 03:11:05;;;;;;;17.00;4.20;;;10.30;99.90;;;;;;5006676;28;20622;-57
2023/03/31 03:13:41;;;;;;;15.00;4.13;;;10.30;99.90;;;;;;5016412;28;20961;-58
2023/03/31 03:16:17;;;;;;;8.77;4.30;;;10.30;99.90;;;;;;5011665;28;20210;-58
2023/03/31 03:18:56;;;;;;;11.77;4.00;;;10.30;99.90;;;;;;4993704;28;20729;-60
2023/03/31 03:21:24;;;;;;;10.90;4.20;;;10.30;99.90;;;;;;5021588;28;20195;-59
2023/03/31 03:23:51;;;;;;;15.77;4.80;;;10.30;99.90;;;;;;5012967;28;20211;-56
2023/03/31 03:26:22;;;;;;;18.30;5.97;;;10.20;99.90;;;;;;5007098;28;20196;-54
2023/03/31 03:28:50;;;;;;;16.27;4.23;;;10.20;99.90;;;;;;5007179;28;20964;-58
2023/03/31 03:31:17;;;;;;;10.57;3.97;;;10.20;99.90;;;;;;5009419;28;20663;-61
2023/03/31 03:33:45;;;;;;;13.57;4.63;;;10.20;99.90;;;;;;4995751;28;20719;-53
2023/03/31 03:36:12;;;;;;;13.57;4.07;;;10.30;99.90;;;;;;5014819;28;20192;-60
2023/03/31 03:38:41;;;;;;;16.20;4.73;;;10.20;99.90;;;;;;5011464;28;20652;-49
2023/03/31 03:41:09;;;;;;;11.97;5.23;;;10.20;99.90;;;;;;5008080;28;20197;-62
2023/03/31 03:43:36;;;;;;;10.13;4.77;;;10.20;99.90;;;;;;5002933;28;20188;-51
2023/03/31 03:46:04;;;;;;;18.47;5.77;;;10.20;99.90;;;;;;5014582;28;20196;-61
2023/03/31 03:48:32;;;;;;;14.20;5.73;;;10.20;99.90;;;;;;5017823;28;20216;-52
2023/03/31 03:50:59;;;;;;;15.40;4.90;;;10.20;99.90;;;;;;4998858;28;20208;-51
2023/03/31 03:53:26;;;;;;;13.00;5.60;;;10.20;99.90;;;;;;5010366;28;20227;-53
2023/03/31 03:55:54;;;;;;;12.83;5.37;;;10.20;99.90;;;;;;5019962;28;20199;-53
2023/03/31 03:58:21;;;;;;;14.80;5.00;;;10.20;99.90;;;;;;5007513;28;20308;-56
2023/03/31 04:01:10;;;;;;;13.40;4.60;;;10.20;99.90;;;;;;5016026;28;20210;-62
2023/03/31 04:03:37;;;;;;;16.10;6.23;;;10.20;99.90;;;;;;5013152;28;20266;-51
2023/03/31 04:06:05;;;;;;;15.07;5.57;;;10.20;99.90;;;;;;4994546;28;20287;-59
2023/03/31 04:08:31;;;;;;;18.77;6.90;;;10.20;99.90;;;;;;5008658;28;20231;-51
2023/03/31 04:10:59;;;;;;;14.33;5.20;;;10.20;99.90;;;;;;5020737;28;20203;-54
2023/03/31 04:13:26;;;;;;;14.43;5.10;;;10.20;99.90;;;;;;5003833;28;22397;-53
2023/03/31 04:15:53;;;;;;;11.97;5.20;;;10.20;99.90;;;;;;5026019;28;20192;-52
2023/03/31 04:18:22;;;;;;;15.73;6.63;;;10.20;99.90;;;;;;5007432;28;20640;-61
2023/03/31 04:20:53;;;;;;;13.33;5.40;;;10.20;99.90;;;;;;5008034;28;20234;-54
2023/03/31 04:23:25;;;;;;;15.43;5.87;;;10.20;99.90;;;;;;4991930;28;20210;-55
2023/03/31 04:25:52;;;;;;;14.67;5.20;;;10.20;99.90;;;;;;5021669;28;20750;-54
2023/03/31 04:28:19;;;;;;;13.33;5.10;;;10.20;99.90;;;;;;5011952;28;20231;-61
2023/03/31 04:30:46;;;;;;;10.67;5.27;;;10.20;99.90;;;;;;5000835;28;20570;-51
2023/03/31 04:33:14;;;;;;;10.77;5.03;;;10.20;99.90;;;;;;5019541;28;20199;-63
2023/03/31 04:35:48;;;;;;;16.03;6.00;;;10.20;99.90;;;;;;5012180;28;20218;-62
2023/03/31 04:38:17;;;;;;;15.10;6.13;;;10.20;99.90;;;;;;4999526;28;20220;-55
2023/03/31 04:40:45;;;;;;;10.60;5.13;;;10.20;99.90;;;;;;5010526;28;20215;-62
2023/03/31 04:43:13;;;;;;;11.80;4.87;;;10.20;99.90;;;;;;5017519;28;20200;-57
2023/03/31 04:45:40;;;;;;;13.03;5.90;;;10.20;99.90;;;;;;5008881;28;20204;-60
2023/03/31 04:48:08;;;;;;;15.10;6.20;;;10.20;99.90;;;;;;5018828;28;20188;-52
2023/03/31 04:50:35;;;;;;;15.13;6.30;;;10.20;99.90;;;;;;5020016;28;20195;-58
2023/03/31 04:53:03;;;;;;;17.57;6.70;;;10.20;99.90;;;;;;4996599;28;20192;-56
2023/03/31 04:55:31;;;;;;;13.10;5.70;;;10.20;99.90;;;;;;5016388;28;20291;-50
2023/03/31 04:57:57;;;;;;;8.47;5.90;;;10.20;99.90;;;;;;5012406;28;20208;-53
2023/03/31 05:00:25;;;;;;;15.13;7.00;;;10.20;99.90;;;;;;5006706;28;20208;-58
2023/03/31 05:02:52;;;;;;;10.00;5.87;;;10.20;99.90;;;;;;5005363;28;20248;-58
2023/03/31 05:05:20;;;;;;;11.77;5.93;;;10.20;99.90;;;;;;5015712;28;20204;-56
2023/03/31 05:07:47;;;;;;;14.90;7.20;;;10.20;99.90;;;;;;5000824;28;20196;-58
2023/03/31 05:10:34;;;;;;;15.47;6.17;;;10.20;99.90;;;;;;5017683;28;20278;-57
2023/03/31 05:13:01;;;;;;;9.33;6.37;;;10.20;99.90;;;;;;5013928;28;20909;-57
2023/03/31 05:15:28;;;;;;;15.63;7.93;;;10.30;99.90;;;;;;5010553;28;20204;-55
2023/03/31 05:17:57;;;;;;;16.83;6.17;;;10.20;99.90;;;;;;5010880;28;20207;-56
2023/03/31 05:20:24;;;;;;;14.90;6.87;;;10.20;99.90;;;;;;5022775;28;20200;-56
2023/03/31 05:22:52;;;;;;;18.77;6.73;;;10.30;99.90;;;;;;5013991;28;20293;-57
2023/03/31 05:25:19;;;;;;;14.93;7.33;;;10.30;99.90;;;;;;4997398;28;20208;-56
2023/03/31 05:27:48;;;;;;;11.30;6.47;;;10.30;99.90;;;;;;5005832;28;20212;-57
2023/03/31 05:30:17;;;;;;;17.37;8.37;;;10.30;99.90;;;;;;4995727;28;20217;-58
2023/03/31 05:32:45;;;;;;;16.73;6.33;;;10.30;99.90;;;;;;5020414;28;20295;-58
2023/03/31 05:35:11;;;;;;;14.70;6.97;;;10.30;99.90;;;;;;5020425;28;20207;-57
2023/03/31 05:37:39;;;;;;;15.20;7.00;;;10.30;99.90;;;;;;5008542;28;20216;-57
2023/03/31 05:40:09;;;;;;;20.23;7.83;;;10.30;99.90;;;;;;4990485;28;20215;-54
2023/03/31 05:42:36;;;;;;;12.07;7.33;;;10.30;99.90;;;;;;5010207;28;20218;-57
2023/03/31 05:45:06;;;;;;;15.57;6.77;;;10.30;99.90;;;;;;5050935;28;20212;-60
2023/03/31 05:47:35;;;;;;;11.90;6.60;;;10.20;99.90;;;;;;5016556;28;20229;-53
2023/03/31 05:50:06;;;;;;;19.70;7.50;;;10.30;99.90;;;;;;5017103;28;20240;-59
2023/03/31 05:52:33;;;;;;;14.87;7.70;;;10.20;99.90;;;;;;5001573;28;20275;-55
2023/03/31 05:55:00;;;;;;;22.33;7.63;;;10.20;99.90;;;;;;5001484;28;20261;-60
2023/03/31 05:57:27;;;;;;;18.80;7.93;;;10.20;99.90;;;;;;5012784;28;20215;-56
2023/03/31 05:59:54;;;;;;;15.73;8.67;;;10.30;99.90;;;;;;5013981;28;20224;-53
2023/03/31 06:02:22;;;;;;;19.73;8.87;;;10.30;99.90;;;;;;5003400;28;20219;-58
2023/03/31 06:04:51;;;;;;;17.00;6.60;;;10.30;99.90;;;;;;5016343;28;20211;-54
2023/03/31 06:07:18;;;;;;;20.77;8.10;;;10.30;99.90;;;;;;4998748;28;20192;-57
2023/03/31 06:09:45;;;;;;;19.73;7.40;;;10.30;99.90;;;;;;5021416;28;20218;-58
2023/03/31 06:12:14;;;;;;;22.77;8.90;;;10.40;99.90;;;;;;4998208;28;20207;-58
2023/03/31 06:14:41;;;;;;;13.47;7.20;;;10.40;99.90;;;;;;5002532;28;20768;-57
2023/03/31 06:17:08;;;;;;;16.53;7.37;;;10.40;99.90;;;;;;5003822;28;20188;-59
2023/03/31 06:19:37;;;;;;;16.43;7.07;;;10.40;99.90;;;;;;5009576;28;21125;-54
2023/03/31 06:22:03;;;;;;;12.27;7.50;;;10.50;99.90;;;;;;5017552;28;20208;-58
2023/03/31 06:24:31;;;;;;;16.23;6.83;;;10.50;99.90;;;;;;5013952;28;20948;-53
2023/03/31 06:26:59;;;;;;;14.13;7.07;;;10.50;99.90;;;;;;4989158;28;20196;-58
2023/03/31 06:29:27;;;;;;;15.00;6.70;;;10.60;99.90;;;;;;5008754;28;20216;-59
2023/03/31 06:32:12;;;;;;;21.63;7.33;;;10.60;99.90;;;;;;5009936;28;20211;-57
2023/03/31 06:35:02;;;;;;;12.97;6.47;;;10.60;99.90;;;;;;5016566;28;20215;-59
2023/03/31 06:37:30;;;;;;;15.97;7.43;;;10.60;99.90;;;;;;5006272;28;20396;-59
2023/03/31 06:39:56;;;;;;;16.50;7.57;;;10.60;99.90;;;;;;5011265;28;20263;-58
2023/03/31 06:42:24;;;;;;;14.33;6.50;;;10.60;99.90;;;;;;4987689;28;22947;-58
2023/03/31 06:44:50;;;;;;;14.50;6.80;;;10.60;99.90;;;;;;5018893;28;20576;-58
2023/03/31 06:47:17;;;;;;;14.40;7.67;;;10.60;99.90;;;;;;5009905;28;20803;-57
2023/03/31 06:49:44;;;;;;;11.47;5.93;;;10.70;99.90;;;;;;5005588;28;21774;-59
2023/03/31 06:52:12;;;;;;;13.40;6.47;;;10.70;99.90;;;;;;5010759;28;20203;-60
2023/03/31 06:54:39;;;;;;;11.73;5.73;;;10.70;99.90;;;;;;5010550;28;20199;-59
2023/03/31 06:57:05;;;;;;;16.90;6.90;;;10.70;99.90;;;;;;4995689;28;20283;-59
2023/03/31 06:59:32;;;;;;;16.53;6.93;;;10.80;99.90;;;;;;5020424;28;20219;-57
2023/03/31 07:01:59;;;;;;;11.83;6.70;;;10.80;99.90;;;;;;5014951;28;21037;-58
2023/03/31 07:04:26;;;;;;;10.37;5.53;;;10.80;99.90;;;;;;4999355;28;20201;-56
2023/03/31 07:06:53;;;;;;;12.57;6.57;;;10.80;99.90;;;;;;5015682;28;20197;-59
2023/03/31 07:09:22;;;;;;;11.53;5.40;;;10.80;99.90;;;;;;5008282;28;20216;-57
2023/03/31 07:11:49;;;;;;;11.13;5.90;;;10.90;99.90;;;;;;5023548;28;20203;-59
2023/03/31 07:14:16;;;;;;;17.57;6.43;;;10.90;99.90;;;;;;4989885;28;20223;-59
2023/03/31 07:16:43;;;;;;;14.60;5.97;;;10.90;99.90;;;;;;5015450;28;20287;-58
2023/03/31 07:19:10;;;;;;;16.83;6.40;;;10.90;99.90;;;;;;5000566;28;20220;-60
2023/03/31 07:21:37;;;;;;;16.03;6.77;;;11.00;99.90;;;;;;5019365;28;20204;-57
2023/03/31 07:24:04;;;;;;;14.70;5.90;;;11.00;99.90;;;;;;5012725;28;20214;-60
2023/03/31 07:26:32;;;;;;;9.07;5.67;;;11.00;99.90;;;;;;5008307;28;20283;-59
2023/03/31 07:28:59;;;;;;;11.23;6.03;;;11.10;99.90;;;;;;4994427;28;20238;-60
2023/03/31 07:31:26;;;;;;;7.63;5.70;;;11.10;99.90;;;;;;5020103;28;20340;-57
2023/03/31 07:33:53;;;;;;;10.07;5.03;;;11.10;99.90;;;;;;5017961;28;20210;-56
2023/03/31 07:36:20;;;;;;;10.67;5.50;;;11.20;99.90;;;;;;5000802;28;20291;-58
2023/03/31 07:38:48;;;;;;;10.20;5.13;;;11.20;99.90;;;;;;5009228;28;20311;-59
2023/03/31 07:41:17;;;;;;;11.13;5.73;;;11.20;99.90;;;;;;5005797;28;20901;-57
2023/03/31 07:43:46;;;;;;;10.60;6.53;;;11.30;99.90;;;;;;5020931;28;20188;-57
2023/03/31 07:46:19;;;;;;;16.87;7.43;;;11.30;99.90;;;;;;4992157;28;20933;-57
2023/03/31 07:48:46;;;;;;;11.57;7.00;;;11.30;99.90;;;;;;5013738;28;20594;-59
2023/03/31 07:51:14;;;;;;;9.43;5.60;;;11.40;99.90;;;;;;4999613;28;21002;-58
2023/03/31 07:53:41;;;;;;;9.37;5.37;;;11.40;99.90;;;;;;5017741;28;20200;-59
2023/03/31 07:56:08;;;;;;;12.23;5.30;;;11.50;99.90;;;;;;5010407;28;20195;-59
2023/03/31 07:58:35;;;;;;;11.50;5.70;;;11.50;99.90;;;;;;5019934;28;20724;-59
2023/03/31 08:01:04;;;;;;;13.93;5.77;;;11.60;99.90;;;;;;4996333;28;20577;-59
2023/03/31 08:03:33;;;;;;;10.97;5.97;;;11.60;99.90;;;;;;5006681;28;20234;-58
2023/03/31 08:06:00;;;;;;;10.07;6.80;;;11.60;99.90;;;;;;5011936;28;20196;-60
2023/03/31 08:08:27;;;;;;;11.73;6.67;;;11.60;99.90;;;;;;5002057;28;20211;-56
2023/03/31 08:10:54;;;;;;;10.73;5.80;;;11.60;99.90;;;;;;5021844;28;20281;-60
2023/03/31 08:13:21;;;;;;;12.07;5.67;;;11.60;99.90;;;;;;5003175;28;20944;-60
2023/03/31 08:15:48;;;;;;;10.13;5.97;;;11.60;99.90;;;;;;4993024;28;20223;-58
2023/03/31 08:18:16;;;;;;;9.77;5.13;;;11.60;99.90;;;;;;5007587;28;20203;-57
2023/03/31 08:20:43;;;;;;;11.17;4.83;;;11.60;99.90;;;;;;5019860;28;20216;-58
2023/03/31 08:23:10;;;;;;;6.77;5.27;;;11.60;99.90;;;;;;5004231;28;20198;-60
2023/03/31 08:25:38;;;;;;;9.97;5.77;;;11.60;99.90;;;;;;5013190;28;20199;-59
2023/03/31 08:28:05;;;;;;;10.33;4.50;;;11.50;99.90;;;;;;5001541;28;20212;-60
2023/03/31 08:30:33;;;;;;;8.10;4.13;;;11.60;99.90;;;;;;5019425;28;20204;-58
2023/03/31 08:33:00;;;;;;;8.47;3.93;;;11.60;99.90;;;;;;4995536;28;20250;-60
2023/03/31 08:35:28;;;;;;;3.77;3.37;;;11.50;99.90;;;;;;5007823;28;20204;-58
2023/03/31 08:37:55;;;;;;;8.10;3.83;;;11.40;99.90;;;;;;5007441;28;20200;-60
2023/03/31 08:40:25;;;;;;;7.40;3.53;;;11.40;99.90;;;;;;4996373;28;20896;-56
2023/03/31 08:42:54;;;;;;;5.30;3.57;;;11.40;99.90;;;;;;5020745;28;20682;-59
2023/03/31 08:45:24;;;;;;;5.27;3.90;;;11.40;99.90;;;;;;5000873;28;20722;-57
2023/03/31 08:47:56;;;;;;;6.97;4.37;;;11.30;99.90;;;;;;5000210;28;20278;-58
2023/03/31 08:50:27;;;;;;;8.73;4.20;;;11.30;99.90;;;;;;5005214;28;20203;-59
2023/03/31 08:53:03;;;;;;;5.00;4.30;;;11.30;99.90;;;;;;5011872;28;20662;-60
2023/03/31 08:55:40;;;;;;;7.90;4.93;;;11.30;99.90;;;;;;5007294;28;20315;-57
2023/03/31 08:58:14;;;;;;;9.70;4.67;;;11.30;99.90;;;;;;5010698;28;20202;-60
2023/03/31 09:00:50;;;;;;;10.00;4.80;;;11.30;99.90;;;;;;5011202;28;20258;-57
2023/03/31 09:03:24;;;;;;;5.93;4.93;;;11.30;99.90;;;;;;4982887;28;20197;-59
2023/03/31 09:06:00;;;;;;;6.40;4.50;;;11.30;99.90;;;;;;5012643;28;20577;-56
2023/03/31 09:08:37;;;;;;;8.00;4.87;;;11.30;99.90;;;;;;5013542;28;20211;-57
2023/03/31 09:11:11;;;;;;;8.80;4.70;;;11.30;99.90;;;;;;4997974;28;20875;-60
2023/03/31 09:13:54;;;;;;;9.57;4.90;;;11.30;99.90;;;;;;5015074;28;20203;-59
2023/03/31 09:16:26;;;;;;;9.20;4.60;;;11.30;99.90;;;;;;5003970;28;20254;-58
2023/03/31 09:18:59;;;;;;;5.90;4.20;;;11.30;99.90;;;;;;4989477;28;20242;-59
2023/03/31 09:21:29;;;;;;;9.50;4.43;;;11.30;99.90;;;;;;5011381;28;20207;-59
2023/03/31 09:24:02;;;;;;;7.87;3.87;;;11.20;99.90;;;;;;5013121;28;20204;-60
2023/03/31 09:26:36;;;;;;;6.40;4.20;;;11.20;99.90;;;;;;4995033;28;20204;-59
2023/03/31 09:29:13;;;;;;;6.87;3.90;;;11.20;99.90;;;;;;5018253;28;20216;-60
2023/03/31 09:31:43;;;;;;;6.20;4.00;;;11.20;99.90;;;;;;5003669;28;20208;-57
2023/03/31 09:34:14;;;;;;;5.23;3.87;;;11.20;99.90;;;;;;4996167;28;20221;-59
2023/03/31 09:36:42;;;;;;;7.50;4.93;;;11.20;99.90;;;;;;5012630;28;20215;-56
2023/03/31 09:39:13;;;;;;;4.97;3.90;;;11.10;99.90;;;;;;4999333;28;20343;-57
2023/03/31 09:41:44;;;;;;;7.63;4.37;;;11.20;99.90;;;;;;5004756;28;20208;-59
2023/03/31 09:44:24;;;;;;;7.37;4.50;;;11.30;99.90;;;;;;5017241;28;20971;-60
2023/03/31 09:46:52;;;;;;;5.00;4.27;;;11.30;99.90;;;;;;5012189;28;20211;-60
2023/03/31 09:49:21;;;;;;;5.23;3.90;;;11.30;99.90;;;;;;5016368;28;20211;-58
2023/03/31 09:51:59;;;;;;;6.97;4.30;;;11.40;99.90;;;;;;4991365;28;20212;-60
2023/03/31 09:54:34;;;;;;;7.03;4.07;;;11.40;99.90;;;;;;5011026;28;20390;-58
2023/03/31 09:57:01;;;;;;;6.57;4.33;;;11.40;99.90;;;;;;5001735;28;20204;-61
2023/03/31 09:59:33;;;;;;;7.73;3.80;;;11.50;99.90;;;;;;5023595;28;20295;-59
2023/03/31 10:02:03;;;;;;;8.47;3.50;;;11.60;99.90;;;;;;5004275;28;20258;-61
2023/03/31 10:04:32;;;;;;;5.43;3.40;;;11.50;99.90;;;;;;5026212;28;20304;-59
2023/03/31 10:07:00;;;;;;;6.30;3.10;;;11.60;99.90;;;;;;4998545;28;20219;-60
2023/03/31 10:09:32;;;;;;;7.50;3.87;;;11.70;99.90;;;;;;5012585;28;20251;-57
2023/03/31 10:12:02;;;;;;;5.13;3.20;;;11.70;99.90;;;;;;4995236;28;20685;-60
2023/03/31 10:14:38;;;;;;;12.83;3.30;;;11.70;99.90;;;;;;5001736;28;20867;-59
2023/03/31 10:17:06;;;;;;;5.97;3.50;;;11.80;99.90;;;;;;5011591;28;20214;-60
2023/03/31 10:19:36;;;;;;;5.00;3.20;;;11.90;99.90;;;;;;5026401;28;21188;-59
2023/03/31 10:22:05;;;;;;;5.70;3.43;;;11.90;99.90;;;;;;5001057;28;20853;-59
2023/03/31 10:24:40;;;;;;;4.90;4.40;;;11.80;99.90;;;;;;5012024;28;20292;-58
2023/03/31 10:27:20;;;;;;;31.03;14.97;;;11.90;99.90;;;;;;4995040;28;20212;-59
2023/03/31 10:29:52;;;;;;;9.77;4.63;;;11.80;99.90;;;;;;5010995;28;20267;-60
2023/03/31 10:32:27;;;;;;;5.50;4.60;;;11.80;99.90;;;;;;5016869;28;20865;-60
2023/03/31 10:34:55;;;;;;;7.60;5.03;;;11.80;99.90;;;;;;5022449;28;20267;-59
2023/03/31 10:37:24;;;;;;;6.40;4.60;;;11.90;99.90;;;;;;4992721;28;20291;-61
2023/03/31 10:40:00;;;;;;;248.93;78.60;;;11.90;99.90;;;;;;5012929;28;20235;-59
2023/03/31 10:42:28;;;;;;;10.80;5.70;;;11.90;99.90;;;;;;4992410;28;20207;-61
2023/03/31 10:45:12;;;;;;;6.43;5.23;;;11.90;99.90;;;;;;5016981;28;20207;-60
2023/03/31 10:47:40;;;;;;;9.40;5.73;;;12.00;99.90;;;;;;5016038;28;20980;-60
2023/03/31 10:50:14;;;;;;;10.00;5.70;;;12.00;99.90;;;;;;5007551;28;20231;-59
2023/03/31 10:52:45;;;;;;;9.33;5.37;;;12.00;99.90;;;;;;4989831;28;20617;-60
2023/03/31 10:55:23;;;;;;;7.03;5.37;;;12.00;99.90;;;;;;5017158;28;20218;-61
2023/03/31 10:57:56;;;;;;;8.50;5.30;;;12.00;99.90;;;;;;4999809;28;20220;-57
2023/03/31 11:00:31;;;;;;;5.70;4.87;;;12.10;99.90;;;;;;5018918;28;20216;-59
2023/03/31 11:03:14;;;;;;;9.03;5.63;;;12.10;99.90;;;;;;5014442;28;20706;-55
2023/03/31 11:05:49;;;;;;;6.47;5.30;;;12.10;99.90;;;;;;4999722;28;20813;-58
2023/03/31 11:08:40;;;;;;;8.97;5.20;;;12.00;99.90;;;;;;4986468;28;20615;-61
2023/03/31 11:11:25;;;;;;;7.07;4.43;;;12.10;99.90;;;;;;5013019;28;20196;-60
2023/03/31 11:13:59;;;;;;;7.97;4.97;;;12.20;99.90;;;;;;4993301;28;20208;-56
2023/03/31 11:16:33;;;;;;;4.67;3.53;;;12.40;99.90;;;;;;5002514;28;20218;-58
2023/03/31 11:19:10;;;;;;;5.10;3.87;;;12.50;99.90;;;;;;5016227;28;20610;-60
2023/03/31 11:21:49;;;;;;;3.33;3.03;;;12.50;99.90;;;;;;5011321;28;20216;-58
2023/03/31 11:24:27;;;;;;;3.73;3.30;;;12.50;99.90;;;;;;4991626;28;20208;-59
2023/03/31 11:27:05;;;;;;;6.33;3.43;;;12.50;99.90;;;;;;5004788;28;20203;-57
2023/03/31 11:29:37;;;;;;;3.90;3.50;;;12.60;99.90;;;;;;4995636;28;20220;-58
2023/03/31 11:32:26;;;;;;;3.93;3.20;;;12.50;99.90;;;;;;5016892;28;20873;-57
2023/03/31 11:35:13;;;;;;;4.03;2.83;;;12.50;99.90;;;;;;5014598;28;20207;-59
2023/03/31 11:38:11;;;;;;;6.90;3.00;;;12.40;99.90;;;;;;5012092;28;20212;-54
2023/03/31 11:40:58;;;;;;;7.17;2.80;;;12.40;99.90;;;;;;5012986;28;20306;-58
2023/03/31 11:43:32;;;;;;;4.40;3.03;;;12.40;99.90;;;;;;5006004;28;20293;-58
2023/03/31 11:46:03;;;;;;;3.17;2.70;;;12.40;99.90;;;;;;4992807;28;20243;-58
2023/03/31 11:48:36;;;;;;;3.37;2.30;;;12.50;99.90;;;;;;5009327;28;20223;-56
2023/03/31 11:51:04;;;;;;;4.43;2.87;;;12.40;99.90;;;;;;5001432;28;20191;-57
2023/03/31 11:53:36;;;;;;;3.37;2.37;;;12.50;99.90;;;;;;5003874;28;20805;-57
2023/03/31 11:56:06;;;;;;;3.00;2.47;;;12.50;99.90;;;;;;4991404;28;20195;-57
2023/03/31 11:58:37;;;;;;;3.83;2.17;;;12.50;99.90;;;;;;5016315;28;20989;-53
2023/03/31 12:01:15;;;;;;;3.00;2.57;;;12.50;99.90;;;;;;4991006;28;20233;-57
2023/03/31 12:03:51;;;;;;;3.37;2.37;;;12.50;99.90;;;;;;5013008;28;20677;-57
2023/03/31 12:06:22;;;;;;;3.90;2.20;;;12.40;99.90;;;;;;5016090;28;20187;-58
2023/03/31 12:09:03;;;;;;;5.50;2.77;;;12.30;99.90;;;;;;5009772;28;20319;-58
2023/03/31 12:11:37;;;;;;;5.23;1.97;;;12.20;99.90;;;;;;4994215;28;20204;-56
2023/03/31 12:14:20;;;;;;;4.73;3.07;;;12.10;99.90;;;;;;5012904;28;20973;-57
2023/03/31 12:16:52;;;;;;;3.07;1.90;;;12.00;99.90;;;;;;5000510;28;20220;-59
2023/03/31 12:19:26;;;;;;;2.43;2.23;;;11.90;99.90;;;;;;5013840;28;20303;-59
2023/03/31 12:21:56;;;;;;;4.57;2.37;;;11.80;99.90;;;;;;5009363;28;20227;-59
2023/03/31 12:24:23;;;;;;;3.40;2.00;;;11.80;99.90;;;;;;5017525;28;20880;-56
2023/03/31 12:27:01;;;;;;;2.07;1.33;;;11.70;99.90;;;;;;4992912;28;20216;-57
2023/03/31 12:29:32;;;;;;;4.93;1.77;;;11.70;99.90;;;;;;5008778;28;20231;-58
2023/03/31 12:32:04;;;;;;;6.07;1.90;;;11.60;99.90;;;;;;5008909;28;20188;-56
2023/03/31 12:34:33;;;;;;;4.53;2.17;;;11.60;99.90;;;;;;5002958;28;20204;-59
2023/03/31 12:37:27;;;;;;;4.60;2.40;;;11.60;99.90;;;;;;5012349;28;20294;-61
2023/03/31 12:40:08;;;;;;;4.10;2.50;;;11.60;99.90;;;;;;4990743;28;20232;-51
2023/03/31 12:43:05;;;;;;;3.00;1.50;;;11.50;99.90;;;;;;4991475;28;20215;-58
2023/03/31 12:45:39;;;;;;;2.20;1.60;;;11.50;99.90;;;;;;5003714;28;20290;-58
2023/03/31 12:48:33;;;;;;;3.43;1.70;;;11.40;99.90;;;;;;4998230;28;20223;-58
2023/03/31 12:51:14;;;;;;;2.80;1.73;;;11.40;99.90;;;;;;4992492;28;20421;-57
2023/03/31 12:53:55;;;;;;;4.30;2.03;;;11.40;99.90;;;;;;5002440;28;20206;-59
2023/03/31 12:56:22;;;;;;;2.77;2.07;;;11.30;99.90;;;;;;5017462;28;20604;-57
2023/03/31 12:58:49;;;;;;;3.43;2.27;;;11.30;99.90;;;;;;4989006;28;20227;-55
2023/03/31 13:01:20;;;;;;;4.63;2.73;;;11.30;99.90;;;;;;4999483;28;20248;-58
2023/03/31 13:03:52;;;;;;;4.27;2.77;;;11.30;99.90;;;;;;5014751;28;20749;-58
2023/03/31 13:06:50;;;;;;;3.87;2.70;;;11.30;99.90;;;;;;4992739;28;20212;-57